sensor_id;sensor_type;location;lat;lon;timestamp;pressure;altitude;pressure_sealevel;temperature;humidity
50774;BME280;36745;48.544;8.918;2023-05-14T00:02:53;97320.84;;;11.51;100.00
50774;BME280;36745;48.544;8.918;2023-05-14T00:06:13;97322.16;;;11.46;100.00
50774;BME280;36745;48.544;8.918;2023-05-14T00:09:33;97316.44;;;11.41;100.00
50774;BME280;36745;48.544;8.918;2023-05-14T00:12:53;97313.81;;;11.37;100.00
50774;BME280;36745;48.544;8.918;2023-05-14T00:16:13;97315.16;;;11.32;100.00
50774;BME280;36745;48.544;8.918;2023-05-14T00:19:33;97315.94;;;11.33;100.00
50774;BME280;36745;48.544;8.918;2023-05-14T00:22:53;97312.69;;;11.34;100.00
50774;BME280;36745;48.544;8.918;2023-05-14T00:26:13;97303.53;;;11.38;100.00
50774;BME280;36745;48.544;8.918;2023-05-14T00:29:33;97294.94;;;11.35;100.00
50774;BME280;36745;48.544;8.918;2023-05-14T00:32:53;97302.56;;;11.31;100.00
50774;BME280;36745;48.544;8.918;2023-05-14T00:36:12;97305.00;;;11.29;100.00
50774;BME280;36745;48.544;8.918;2023-05-14T00:39:33;97302.56;;;11.31;100.00
50774;BME280;36745;48.544;8.918;2023-05-14T00:42:53;97299.59;;;11.26;100.00
50774;BME280;36745;48.544;8.918;2023-05-14T00:46:14;97295.16;;;11.28;100.00
50774;BME280;36745;48.544;8.918;2023-05-14T00:49:34;97282.28;;;11.25;100.00
50774;BME280;36745;48.544;8.918;2023-05-14T00:52:54;97288.22;;;11.24;100.00
50774;BME280;36745;48.544;8.918;2023-05-14T00:56:14;97283.03;;;11.26;100.00
50774;BME280;36745;48.544;8.918;2023-05-14T00:59:34;97285.03;;;11.25;100.00
50774;BME280;36745;48.544;8.918;2023-05-14T01:02:54;97281.63;;;11.21;100.00
50774;BME280;36745;48.544;8.918;2023-05-14T01:06:19;97281.41;;;11.16;100.00
50774;BME280;36745;48.544;8.918;2023-05-14T01:16:44;97273.66;;;11.23;100.00
50774;BME280;36745;48.544;8.918;2023-05-14T01:20:04;97276.09;;;11.21;100.00
50774;BME280;36745;48.544;8.918;2023-05-14T01:23:25;97274.13;;;11.22;100.00
50774;BME280;36745;48.544;8.918;2023-05-14T01:26:45;97271.16;;;11.16;100.00
50774;BME280;36745;48.544;8.918;2023-05-14T01:33:41;97259.84;;;11.23;100.00
50774;BME280;36745;48.544;8.918;2023-05-14T01:37:03;97255.09;;;11.24;100.00
50774;BME280;36745;48.544;8.918;2023-05-14T01:40:24;97256.78;;;11.21;100.00
50774;BME280;36745;48.544;8.918;2023-05-14T01:43:44;97255.69;;;11.19;100.00
50774;BME280;36745;48.544;8.918;2023-05-14T01:47:04;97253.38;;;11.17;100.00
50774;BME280;36745;48.544;8.918;2023-05-14T01:50:24;97251.84;;;11.16;100.00
50774;BME280;36745;48.544;8.918;2023-05-14T01:53:44;97257.22;;;11.20;100.00
50774;BME280;36745;48.544;8.918;2023-05-14T01:57:04;97252.47;;;11.20;100.00
50774;BME280;36745;48.544;8.918;2023-05-14T02:00:24;97262.88;;;11.16;100.00
50774;BME280;36745;48.544;8.918;2023-05-14T02:03:46;97253.38;;;11.17;100.00
50774;BME280;36745;48.544;8.918;2023-05-14T02:07:06;97249.53;;;11.15;100.00
50774;BME280;36745;48.544;8.918;2023-05-14T02:10:26;97254.91;;;11.18;100.00
50774;BME280;36745;48.544;8.918;2023-05-14T02:13:46;97259.44;;;11.12;100.00
50774;BME280;36745;48.544;8.918;2023-05-14T02:17:05;97251.06;;;11.16;100.00
50774;BME280;36745;48.544;8.918;2023-05-14T02:20:25;97251.50;;;11.14;100.00
50774;BME280;36745;48.544;8.918;2023-05-14T02:23:45;97252.72;;;11.13;100.00
50774;BME280;36745;48.544;8.918;2023-05-14T02:27:06;97255.94;;;11.12;100.00
50774;BME280;36745;48.544;8.918;2023-05-14T02:30:26;97261.56;;;11.08;100.00
50774;BME280;36745;48.544;8.918;2023-05-14T02:33:46;97260.34;;;11.09;100.00
50774;BME280;36745;48.544;8.918;2023-05-14T02:37:06;97253.41;;;11.05;100.00
50774;BME280;36745;48.544;8.918;2023-05-14T02:40:25;97252.06;;;11.09;100.00
50774;BME280;36745;48.544;8.918;2023-05-14T02:43:45;97259.13;;;11.10;100.00
50774;BME280;36745;48.544;8.918;2023-05-14T02:47:05;97268.84;;;11.02;100.00
50774;BME280;36745;48.544;8.918;2023-05-14T02:50:25;97261.03;;;11.01;100.00
50774;BME280;36745;48.544;8.918;2023-05-14T02:53:45;97260.25;;;11.00;100.00
50774;BME280;36745;48.544;8.918;2023-05-14T02:57:05;97269.75;;;10.99;100.00
50774;BME280;36745;48.544;8.918;2023-05-14T03:00:24;97264.22;;;10.99;100.00
50774;BME280;36745;48.544;8.918;2023-05-14T03:03:44;97259.78;;;11.02;100.00
50774;BME280;36745;48.544;8.918;2023-05-14T03:07:04;97262.00;;;11.07;100.00
50774;BME280;36745;48.544;8.918;2023-05-14T03:10:24;97262.34;;;11.09;100.00
50774;BME280;36745;48.544;8.918;2023-05-14T03:13:44;97261.03;;;11.01;100.00
50774;BME280;36745;48.544;8.918;2023-05-14T03:17:04;97257.03;;;11.02;100.00
50774;BME280;36745;48.544;8.918;2023-05-14T03:20:25;97256.03;;;11.08;100.00
50774;BME280;36745;48.544;8.918;2023-05-14T03:23:45;97256.28;;;11.01;100.00
50774;BME280;36745;48.544;8.918;2023-05-14T03:27:04;97258.72;;;10.99;100.00
50774;BME280;36745;48.544;8.918;2023-05-14T03:30:24;97253.53;;;11.01;100.00
50774;BME280;36745;48.544;8.918;2023-05-14T03:33:44;97255.81;;;11.03;100.00
50774;BME280;36745;48.544;8.918;2023-05-14T03:37:04;97261.34;;;11.03;100.00
50774;BME280;36745;48.544;8.918;2023-05-14T03:40:24;97262.91;;;10.91;100.00
50774;BME280;36745;48.544;8.918;2023-05-14T03:43:44;97265.66;;;10.91;100.00
50774;BME280;36745;48.544;8.918;2023-05-14T03:47:04;97265.88;;;10.97;100.00
50774;BME280;36745;48.544;8.918;2023-05-14T03:50:24;97268.19;;;10.98;100.00
50774;BME280;36745;48.544;8.918;2023-05-14T03:53:44;97262.34;;;10.96;100.00
50774;BME280;36745;48.544;8.918;2023-05-14T03:57:04;97260.25;;;11.00;100.00
50774;BME280;36745;48.544;8.918;2023-05-14T04:00:23;97263.88;;;10.97;100.00
50774;BME280;36745;48.544;8.918;2023-05-14T04:03:43;97268.19;;;10.98;100.00
50774;BME280;36745;48.544;8.918;2023-05-14T04:07:03;97263.59;;;10.95;100.00
50774;BME280;36745;48.544;8.918;2023-05-14T04:10:23;97262.13;;;11.03;100.00
50774;BME280;36745;48.544;8.918;2023-05-14T04:13:42;97261.81;;;11.01;100.00
50774;BME280;36745;48.544;8.918;2023-05-14T04:17:02;97260.34;;;10.97;100.00
50774;BME280;36745;48.544;8.918;2023-05-14T04:20:22;97258.84;;;10.96;100.00
50774;BME280;36745;48.544;8.918;2023-05-14T04:23:42;97259.34;;;11.03;100.00
50774;BME280;36745;48.544;8.918;2023-05-14T04:27:02;97256.94;;;11.05;100.00
50774;BME280;36745;48.544;8.918;2023-05-14T04:30:22;97255.53;;;11.01;100.00
50774;BME280;36745;48.544;8.918;2023-05-14T04:33:42;97243.72;;;11.00;100.00
50774;BME280;36745;48.544;8.918;2023-05-14T04:37:02;97248.03;;;11.01;100.00
50774;BME280;36745;48.544;8.918;2023-05-14T04:40:22;97249.78;;;10.95;100.00
50774;BME280;36745;48.544;8.918;2023-05-14T04:43:42;97258.72;;;10.99;100.00
50774;BME280;36745;48.544;8.918;2023-05-14T04:47:02;97251.09;;;11.03;100.00
50774;BME280;36745;48.544;8.918;2023-05-14T04:50:22;97248.53;;;11.09;100.00
50774;BME280;36745;48.544;8.918;2023-05-14T04:53:42;97255.03;;;11.15;100.00
50774;BME280;36745;48.544;8.918;2023-05-14T04:57:02;97261.56;;;11.08;100.00
50774;BME280;36745;48.544;8.918;2023-05-14T05:00:22;97267.41;;;11.10;100.00
50774;BME280;36745;48.544;8.918;2023-05-14T05:03:42;97263.66;;;11.17;100.00
50774;BME280;36745;48.544;8.918;2023-05-14T05:07:02;97263.53;;;11.20;100.00
50774;BME280;36745;48.544;8.918;2023-05-14T05:10:22;97259.56;;;11.21;100.00
50774;BME280;36745;48.544;8.918;2023-05-14T05:13:41;97256.00;;;11.21;100.00
50774;BME280;36745;48.544;8.918;2023-05-14T05:17:01;97255.69;;;11.19;100.00
50774;BME280;36745;48.544;8.918;2023-05-14T05:20:21;97250.94;;;11.19;100.00
50774;BME280;36745;48.544;8.918;2023-05-14T05:23:41;97252.47;;;11.20;100.00
50774;BME280;36745;48.544;8.918;2023-05-14T05:27:01;97253.25;;;11.21;100.00
50774;BME280;36745;48.544;8.918;2023-05-14T05:30:21;97247.59;;;11.24;100.00
50774;BME280;36745;48.544;8.918;2023-05-14T05:33:41;97249.78;;;11.29;100.00
50774;BME280;36745;48.544;8.918;2023-05-14T05:37:01;97252.91;;;11.31;100.00
50774;BME280;36745;48.544;8.918;2023-05-14T05:40:20;97240.72;;;11.42;100.00
50774;BME280;36745;48.544;8.918;2023-05-14T05:43:40;97248.09;;;11.45;100.00
50774;BME280;36745;48.544;8.918;2023-05-14T05:47:00;97249.31;;;11.44;100.00
50774;BME280;36745;48.544;8.918;2023-05-14T05:50:20;97243.53;;;11.51;100.00
50774;BME280;36745;48.544;8.918;2023-05-14T05:53:40;97240.34;;;11.52;100.00
50774;BME280;36745;48.544;8.918;2023-05-14T05:56:59;97245.72;;;11.56;100.00
50774;BME280;36745;48.544;8.918;2023-05-14T06:00:19;97247.25;;;11.57;100.00
50774;BME280;36745;48.544;8.918;2023-05-14T06:03:39;97244.50;;;11.57;100.00
50774;BME280;36745;48.544;8.918;2023-05-14T06:06:59;97238.31;;;11.65;100.00
50774;BME280;36745;48.544;8.918;2023-05-14T06:10:18;97237.25;;;11.72;100.00
50774;BME280;36745;48.544;8.918;2023-05-14T06:13:38;97239.47;;;11.77;100.00
50774;BME280;36745;48.544;8.918;2023-05-14T06:16:58;97247.44;;;11.75;100.00
50774;BME280;36745;48.544;8.918;2023-05-14T06:20:21;97253.94;;;11.68;100.00
50774;BME280;36745;48.544;8.918;2023-05-14T06:23:41;97246.13;;;11.67;100.00
50774;BME280;36745;48.544;8.918;2023-05-14T06:27:05;97253.81;;;11.72;100.00
50774;BME280;36745;48.544;8.918;2023-05-14T06:30:28;97244.53;;;11.78;100.00
50774;BME280;36745;48.544;8.918;2023-05-14T06:33:50;97248.13;;;11.88;100.00
50774;BME280;36745;48.544;8.918;2023-05-14T06:37:10;97248.22;;;11.97;100.00
50774;BME280;36745;48.544;8.918;2023-05-14T06:40:33;97251.28;;;11.99;100.00
50774;BME280;36745;48.544;8.918;2023-05-14T06:44:02;97250.06;;;12.00;100.00
50774;BME280;36745;48.544;8.918;2023-05-14T06:47:23;97257.16;;;12.10;100.00
50774;BME280;36745;48.544;8.918;2023-05-14T06:50:47;97256.28;;;12.13;100.00
50774;BME280;36745;48.544;8.918;2023-05-14T06:54:07;97253.81;;;12.15;100.00
50774;BME280;36745;48.544;8.918;2023-05-14T06:57:27;97262.44;;;12.17;100.00
50774;BME280;36745;48.544;8.918;2023-05-14T07:00:47;97258.13;;;12.16;100.00
50774;BME280;36745;48.544;8.918;2023-05-14T07:04:06;97257.66;;;12.09;100.00
50774;BME280;36745;48.544;8.918;2023-05-14T07:07:26;97251.66;;;12.10;100.00
50774;BME280;36745;48.544;8.918;2023-05-14T07:10:46;97248.88;;;12.10;100.00
50774;BME280;36745;48.544;8.918;2023-05-14T07:14:06;97252.13;;;12.09;100.00
50774;BME280;36745;48.544;8.918;2023-05-14T07:17:26;97253.81;;;12.15;100.00
50774;BME280;36745;48.544;8.918;2023-05-14T07:20:45;97256.91;;;12.17;100.00
50774;BME280;36745;48.544;8.918;2023-05-14T07:24:05;97249.84;;;12.16;100.00
50774;BME280;36745;48.544;8.918;2023-05-14T07:27:25;97245.22;;;12.13;100.00
50774;BME280;36745;48.544;8.918;2023-05-14T07:30:45;97241.50;;;12.07;100.00
50774;BME280;36745;48.544;8.918;2023-05-14T07:34:05;97251.66;;;12.10;100.00
50774;BME280;36745;48.544;8.918;2023-05-14T07:37:35;97240.88;;;12.03;100.00
50774;BME280;36745;48.544;8.918;2023-05-14T07:40:55;97244.31;;;12.16;100.00
50774;BME280;36745;48.544;8.918;2023-05-14T07:44:15;97238.25;;;12.31;100.00
50774;BME280;36745;48.544;8.918;2023-05-14T07:47:34;97239.41;;;12.20;100.00
50774;BME280;36745;48.544;8.918;2023-05-14T07:50:54;97235.50;;;12.31;100.00
50774;BME280;36745;48.544;8.918;2023-05-14T07:54:15;97236.44;;;12.37;100.00
50774;BME280;36745;48.544;8.918;2023-05-14T07:57:35;97240.13;;;12.43;100.00
50774;BME280;36745;48.544;8.918;2023-05-14T08:00:55;97237.91;;;12.59;100.00
50774;BME280;36745;48.544;8.918;2023-05-14T08:04:16;97235.66;;;12.76;100.00
50774;BME280;36745;48.544;8.918;2023-05-14T08:07:36;97240.13;;;12.83;100.00
50774;BME280;36745;48.544;8.918;2023-05-14T08:10:56;97236.09;;;12.75;100.00
50774;BME280;36745;48.544;8.918;2023-05-14T08:14:16;97235.00;;;12.63;100.00
50774;BME280;36745;48.544;8.918;2023-05-14T08:17:36;97234.69;;;12.61;100.00
50774;BME280;36745;48.544;8.918;2023-05-14T08:20:55;97239.03;;;12.71;100.00
50774;BME280;36745;48.544;8.918;2023-05-14T08:24:15;97235.94;;;12.69;100.00
50774;BME280;36745;48.544;8.918;2023-05-14T08:27:35;97229.84;;;12.83;100.00
50774;BME280;36745;48.544;8.918;2023-05-14T08:30:55;97231.41;;;13.02;100.00
50774;BME280;36745;48.544;8.918;2023-05-14T08:34:16;97233.88;;;13.10;100.00
50774;BME280;36745;48.544;8.918;2023-05-14T08:37:35;97239.41;;;13.00;100.00
50774;BME280;36745;48.544;8.918;2023-05-14T08:40:56;97225.59;;;13.00;100.00
50774;BME280;36745;48.544;8.918;2023-05-14T08:44:22;97232.66;;;13.11;100.00
50774;BME280;36745;48.544;8.918;2023-05-14T08:47:47;97235.91;;;13.18;100.00
50774;BME280;36745;48.544;8.918;2023-05-14T08:51:10;97231.00;;;13.13;100.00
50774;BME280;36745;48.544;8.918;2023-05-14T08:54:30;97231.13;;;13.10;100.00
50774;BME280;36745;48.544;8.918;2023-05-14T08:57:50;97227.00;;;13.23;100.00
50774;BME280;36745;48.544;8.918;2023-05-14T09:01:10;97225.63;;;13.46;100.00
50774;BME280;36745;48.544;8.918;2023-05-14T09:04:31;97217.47;;;13.33;100.00
50774;BME280;36745;48.544;8.918;2023-05-14T09:07:50;97222.84;;;13.55;100.00
50774;BME280;36745;48.544;8.918;2023-05-14T09:11:10;97211.75;;;13.92;100.00
50774;BME280;36745;48.544;8.918;2023-05-14T09:14:31;97216.31;;;14.13;100.00
50774;BME280;36745;48.544;8.918;2023-05-14T09:17:52;97215.06;;;14.23;100.00
50774;BME280;36745;48.544;8.918;2023-05-14T09:21:13;97211.56;;;14.55;100.00
50774;BME280;36745;48.544;8.918;2023-05-14T09:24:33;97205.00;;;14.77;100.00
50774;BME280;36745;48.544;8.918;2023-05-14T09:27:53;97205.31;;;14.46;99.97
50774;BME280;36745;48.544;8.918;2023-05-14T09:31:13;97202.69;;;14.75;100.00
50774;BME280;36745;48.544;8.918;2023-05-14T09:34:33;97207.75;;;14.77;99.85
50774;BME280;36745;48.544;8.918;2023-05-14T09:37:56;97200.91;;;14.87;100.00
50774;BME280;36745;48.544;8.918;2023-05-14T09:41:16;97200.91;;;15.34;100.00
50774;BME280;36745;48.544;8.918;2023-05-14T09:44:36;97195.56;;;15.45;98.17
50774;BME280;36745;48.544;8.918;2023-05-14T09:47:58;97195.41;;;15.25;96.44
50774;BME280;36745;48.544;8.918;2023-05-14T09:51:19;97191.47;;;15.17;96.17
50774;BME280;36745;48.544;8.918;2023-05-14T09:54:39;97192.00;;;15.06;95.90
50774;BME280;36745;48.544;8.918;2023-05-14T09:57:59;97191.47;;;14.93;95.16
50774;BME280;36745;48.544;8.918;2023-05-14T10:01:19;97190.75;;;15.07;96.31
50774;BME280;36745;48.544;8.918;2023-05-14T10:04:40;97184.09;;;15.14;94.41
50774;BME280;36745;48.544;8.918;2023-05-14T10:08:04;97174.81;;;14.69;92.25
50774;BME280;36745;48.544;8.918;2023-05-14T10:11:30;97179.50;;;14.54;92.98
50774;BME280;36745;48.544;8.918;2023-05-14T10:14:51;97179.25;;;14.43;92.94
50774;BME280;36745;48.544;8.918;2023-05-14T10:18:18;97175.50;;;14.55;94.21
50774;BME280;36745;48.544;8.918;2023-05-14T10:21:40;97173.09;;;14.72;94.60
50774;BME280;36745;48.544;8.918;2023-05-14T10:25:03;97175.34;;;14.83;93.89
50774;BME280;36745;48.544;8.918;2023-05-14T10:28:23;97173.69;;;14.76;92.19
50774;BME280;36745;48.544;8.918;2023-05-14T10:31:48;97172.81;;;14.94;94.21
50774;BME280;36745;48.544;8.918;2023-05-14T10:35:18;97158.50;;;15.10;93.68
50774;BME280;36745;48.544;8.918;2023-05-14T10:38:40;97167.50;;;15.05;92.85
50774;BME280;36745;48.544;8.918;2023-05-14T10:42:00;97163.09;;;15.13;92.63
50774;BME280;36745;48.544;8.918;2023-05-14T10:45:21;97165.00;;;15.07;91.12
50774;BME280;36745;48.544;8.918;2023-05-14T10:48:42;97162.09;;;15.25;92.59
50774;BME280;36745;48.544;8.918;2023-05-14T10:52:02;97153.97;;;15.36;90.77
50774;BME280;36745;48.544;8.918;2023-05-14T10:55:21;97152.25;;;15.39;90.09
50774;BME280;36745;48.544;8.918;2023-05-14T10:58:43;97143.91;;;15.39;89.90
50774;BME280;36745;48.544;8.918;2023-05-14T11:02:04;97144.63;;;15.48;87.89
50774;BME280;36745;48.544;8.918;2023-05-14T11:05:23;97133.50;;;15.48;88.63
50774;BME280;36745;48.544;8.918;2023-05-14T11:08:46;97134.44;;;15.45;87.99
50774;BME280;36745;48.544;8.918;2023-05-14T11:12:07;97133.34;;;15.52;87.11
50774;BME280;36745;48.544;8.918;2023-05-14T11:15:27;97136.56;;;15.50;87.08
50774;BME280;36745;48.544;8.918;2023-05-14T11:18:47;97131.00;;;15.50;87.45
50774;BME280;36745;48.544;8.918;2023-05-14T11:22:10;97125.44;;;15.50;87.83
50774;BME280;36745;48.544;8.918;2023-05-14T11:25:33;97126.78;;;15.40;87.49
50774;BME280;36745;48.544;8.918;2023-05-14T11:28:53;97113.88;;;15.67;88.39
50774;BME280;36745;48.544;8.918;2023-05-14T11:32:14;97110.47;;;16.21;88.59
50774;BME280;36745;48.544;8.918;2023-05-14T11:35:34;97108.22;;;16.05;85.33
50774;BME280;36745;48.544;8.918;2023-05-14T11:38:55;97112.91;;;15.99;86.24
50774;BME280;36745;48.544;8.918;2023-05-14T11:42:15;97112.72;;;15.88;85.91
50774;BME280;36745;48.544;8.918;2023-05-14T11:45:37;97106.50;;;15.93;85.72
50774;BME280;36745;48.544;8.918;2023-05-14T11:48:56;97113.03;;;15.90;85.74
50774;BME280;36745;48.544;8.918;2023-05-14T11:52:16;97109.56;;;15.95;84.90
50774;BME280;36745;48.544;8.918;2023-05-14T11:55:37;97098.16;;;15.93;83.29
50774;BME280;36745;48.544;8.918;2023-05-14T11:58:57;97086.44;;;16.18;84.08
50774;BME280;36745;48.544;8.918;2023-05-14T12:02:17;97098.66;;;16.26;83.83
50774;BME280;36745;48.544;8.918;2023-05-14T12:05:38;97094.94;;;16.15;81.92
50774;BME280;36745;48.544;8.918;2023-05-14T12:08:58;97085.81;;;16.29;82.88
50774;BME280;36745;48.544;8.918;2023-05-14T12:12:20;97080.34;;;16.34;82.94
50774;BME280;36745;48.544;8.918;2023-05-14T12:15:44;97078.81;;;16.33;81.42
50774;BME280;36745;48.544;8.918;2023-05-14T12:19:03;97068.22;;;16.37;82.00
50774;BME280;36745;48.544;8.918;2023-05-14T12:22:23;97057.19;;;16.43;82.08
50774;BME280;36745;48.544;8.918;2023-05-14T12:25:50;97052.09;;;16.42;81.96
50774;BME280;36745;48.544;8.918;2023-05-14T12:29:12;97054.75;;;16.51;81.94
50774;BME280;36745;48.544;8.918;2023-05-14T12:32:33;97057.88;;;16.58;80.76
50774;BME280;36745;48.544;8.918;2023-05-14T12:35:53;97055.56;;;16.36;79.58
50774;BME280;36745;48.544;8.918;2023-05-14T12:39:16;97051.53;;;16.37;79.48
50774;BME280;36745;48.544;8.918;2023-05-14T12:42:36;97040.00;;;16.45;79.60
50774;BME280;36745;48.544;8.918;2023-05-14T12:45:56;97040.63;;;16.54;78.38
50774;BME280;36745;48.544;8.918;2023-05-14T12:49:15;97053.56;;;16.57;79.60
50774;BME280;36745;48.544;8.918;2023-05-14T12:52:35;97074.25;;;16.16;78.35
50774;BME280;36745;48.544;8.918;2023-05-14T12:55:55;97059.75;;;15.77;81.52
50774;BME280;36745;48.544;8.918;2023-05-14T12:59:15;97048.28;;;15.55;83.66
50774;BME280;36745;48.544;8.918;2023-05-14T13:02:35;97047.09;;;15.32;84.59
50774;BME280;36745;48.544;8.918;2023-05-14T13:05:55;97044.97;;;15.12;85.78
50774;BME280;36745;48.544;8.918;2023-05-14T13:09:14;97038.72;;;14.88;86.74
50774;BME280;36745;48.544;8.918;2023-05-14T13:12:34;97039.19;;;14.86;88.07
50774;BME280;36745;48.544;8.918;2023-05-14T13:15:54;97028.84;;;14.87;88.92
50774;BME280;36745;48.544;8.918;2023-05-14T13:19:14;97025.50;;;14.97;90.58
50774;BME280;36745;48.544;8.918;2023-05-14T13:22:34;97025.81;;;15.14;90.44
50774;BME280;36745;48.544;8.918;2023-05-14T13:25:53;97027.16;;;15.33;89.48
50774;BME280;36745;48.544;8.918;2023-05-14T13:29:13;97027.94;;;15.34;88.74
50774;BME280;36745;48.544;8.918;2023-05-14T13:32:33;97030.41;;;15.46;87.84
50774;BME280;36745;48.544;8.918;2023-05-14T13:35:53;97030.59;;;15.28;87.03
50774;BME280;36745;48.544;8.918;2023-05-14T13:39:12;97029.16;;;15.18;87.57
50774;BME280;36745;48.544;8.918;2023-05-14T13:42:33;97025.34;;;15.30;86.99
50774;BME280;36745;48.544;8.918;2023-05-14T13:45:52;97021.22;;;15.40;88.11
50774;BME280;36745;48.544;8.918;2023-05-14T13:49:12;97024.53;;;15.53;88.53
50774;BME280;36745;48.544;8.918;2023-05-14T13:52:32;97017.59;;;15.64;88.20
50774;BME280;36745;48.544;8.918;2023-05-14T13:55:52;97017.88;;;15.66;88.02
50774;BME280;36745;48.544;8.918;2023-05-14T13:59:19;97015.09;;;15.66;88.56
50774;BME280;36745;48.544;8.918;2023-05-14T14:02:39;97023.06;;;15.58;89.14
50774;BME280;36745;48.544;8.918;2023-05-14T14:05:59;97022.19;;;15.67;89.41
50774;BME280;36745;48.544;8.918;2023-05-14T14:09:19;97009.91;;;15.73;90.58
50774;BME280;36745;48.544;8.918;2023-05-14T14:12:39;97013.16;;;15.72;90.23
50774;BME280;36745;48.544;8.918;2023-05-14T14:15:59;97008.88;;;15.41;88.36
50774;BME280;36745;48.544;8.918;2023-05-14T14:19:21;97002.16;;;15.04;87.58
50774;BME280;36745;48.544;8.918;2023-05-14T14:22:42;97003.00;;;14.81;88.36
50774;BME280;36745;48.544;8.918;2023-05-14T14:26:02;97004.91;;;14.75;88.71
50774;BME280;36745;48.544;8.918;2023-05-14T14:29:22;97010.84;;;14.67;88.66
50774;BME280;36745;48.544;8.918;2023-05-14T14:32:43;97011.94;;;14.46;89.92
50774;BME280;36745;48.544;8.918;2023-05-14T14:36:03;97008.84;;;14.44;91.44
50774;BME280;36745;48.544;8.918;2023-05-14T14:39:23;97001.56;;;14.47;91.71
50774;BME280;36745;48.544;8.918;2023-05-14T14:42:43;97007.31;;;14.43;92.23
50774;BME280;36745;48.544;8.918;2023-05-14T14:46:04;97003.31;;;14.44;92.22
50774;BME280;36745;48.544;8.918;2023-05-14T14:49:23;97009.81;;;14.41;93.88
50774;BME280;36745;48.544;8.918;2023-05-14T14:52:43;97010.13;;;14.34;94.41
50774;BME280;36745;48.544;8.918;2023-05-14T14:56:04;97002.88;;;14.37;95.33
50774;BME280;36745;48.544;8.918;2023-05-14T14:59:23;97006.84;;;14.45;93.48
50774;BME280;36745;48.544;8.918;2023-05-14T15:02:43;97009.19;;;14.37;93.99
50774;BME280;36745;48.544;8.918;2023-05-14T15:06:03;97016.28;;;14.38;94.94
50774;BME280;36745;48.544;8.918;2023-05-14T15:09:23;97013.81;;;14.40;95.66
50774;BME280;36745;48.544;8.918;2023-05-14T15:12:42;97010.97;;;14.49;94.64
50774;BME280;36745;48.544;8.918;2023-05-14T15:16:02;97009.63;;;14.45;95.74
50774;BME280;36745;48.544;8.918;2023-05-14T15:19:22;97010.47;;;14.27;94.60
50774;BME280;36745;48.544;8.918;2023-05-14T15:22:42;97017.91;;;14.21;94.53
50774;BME280;36745;48.544;8.918;2023-05-14T15:26:03;97022.28;;;14.13;93.97
50774;BME280;36745;48.544;8.918;2023-05-14T15:29:22;97027.97;;;14.09;94.12
50774;BME280;36745;48.544;8.918;2023-05-14T15:32:43;97014.00;;;14.04;95.28
50774;BME280;36745;48.544;8.918;2023-05-14T15:36:03;97011.22;;;14.04;95.95
50774;BME280;36745;48.544;8.918;2023-05-14T15:39:23;97001.91;;;13.92;94.09
50774;BME280;36745;48.544;8.918;2023-05-14T15:42:43;97009.41;;;14.01;94.04
50774;BME280;36745;48.544;8.918;2023-05-14T15:46:03;97012.34;;;14.21;93.61
50774;BME280;36745;48.544;8.918;2023-05-14T15:49:23;97011.19;;;14.37;94.07
50774;BME280;36745;48.544;8.918;2023-05-14T15:52:43;97003.38;;;14.74;95.52
50774;BME280;36745;48.544;8.918;2023-05-14T15:56:03;96997.28;;;14.84;94.52
50774;BME280;36745;48.544;8.918;2023-05-14T15:59:22;96990.28;;;14.89;94.11
50774;BME280;36745;48.544;8.918;2023-05-14T16:02:42;96988.00;;;15.02;94.71
50774;BME280;36745;48.544;8.918;2023-05-14T16:06:02;96982.94;;;15.15;94.98
50774;BME280;36745;48.544;8.918;2023-05-14T16:09:22;96984.25;;;15.34;95.03
50774;BME280;36745;48.544;8.918;2023-05-14T16:12:42;96988.41;;;15.53;94.58
50774;BME280;36745;48.544;8.918;2023-05-14T16:16:02;96977.00;;;15.51;94.14
50774;BME280;36745;48.544;8.918;2023-05-14T16:19:21;96985.41;;;15.42;94.02
50774;BME280;36745;48.544;8.918;2023-05-14T16:22:41;96985.50;;;15.33;93.86
50774;BME280;36745;48.544;8.918;2023-05-14T16:26:01;96980.91;;;15.30;93.97
50774;BME280;36745;48.544;8.918;2023-05-14T16:29:21;96979.13;;;15.27;94.66
50774;BME280;36745;48.544;8.918;2023-05-14T16:32:41;96979.13;;;15.27;95.11
50774;BME280;36745;48.544;8.918;2023-05-14T16:36:01;96979.78;;;15.22;94.96
50774;BME280;36745;48.544;8.918;2023-05-14T16:39:20;96984.66;;;15.27;95.50
50774;BME280;36745;48.544;8.918;2023-05-14T16:42:40;96974.88;;;15.32;95.35
50774;BME280;36745;48.544;8.918;2023-05-14T16:46:00;96978.63;;;15.29;95.18
50774;BME280;36745;48.544;8.918;2023-05-14T16:49:20;96967.03;;;15.30;95.77
50774;BME280;36745;48.544;8.918;2023-05-14T16:52:41;96973.47;;;15.22;96.09
50774;BME280;36745;48.544;8.918;2023-05-14T16:56:01;96963.19;;;15.13;96.86
50774;BME280;36745;48.544;8.918;2023-05-14T16:59:21;96982.38;;;15.11;97.85
50774;BME280;36745;48.544;8.918;2023-05-14T17:02:41;96978.53;;;15.08;98.28
50774;BME280;36745;48.544;8.918;2023-05-14T17:06:01;96978.31;;;15.12;97.57
50774;BME280;36745;48.544;8.918;2023-05-14T17:09:21;96985.03;;;15.05;98.08
50774;BME280;36745;48.544;8.918;2023-05-14T17:12:40;96983.31;;;15.08;99.58
50774;BME280;36745;48.544;8.918;2023-05-14T17:16:00;96987.31;;;15.07;99.99
50774;BME280;36745;48.544;8.918;2023-05-14T17:19:20;96991.38;;;15.06;99.67
50774;BME280;36745;48.544;8.918;2023-05-14T17:22:40;96980.91;;;15.01;100.00
50774;BME280;36745;48.544;8.918;2023-05-14T17:26:00;96988.09;;;14.93;99.25
50774;BME280;36745;48.544;8.918;2023-05-14T17:29:20;96990.56;;;14.91;99.58
50774;BME280;36745;48.544;8.918;2023-05-14T17:32:40;96985.41;;;14.84;100.00
50774;BME280;36745;48.544;8.918;2023-05-14T17:36:00;96991.91;;;14.81;100.00
50774;BME280;36745;48.544;8.918;2023-05-14T17:39:20;96994.41;;;14.79;100.00
50774;BME280;36745;48.544;8.918;2023-05-14T17:42:39;97002.41;;;14.77;100.00
50774;BME280;36745;48.544;8.918;2023-05-14T17:45:59;96996.31;;;14.73;100.00